createdAt,value
2019-06-10T00:02:22.480Z,95464.63
2019-06-10T00:04:50.811Z,95464.66
2019-06-10T00:07:18.413Z,95465.66
2019-06-10T00:09:45.872Z,95456.16
2019-06-10T00:12:13.596Z,95460.36
2019-06-10T00:14:41.885Z,95471.85
2019-06-10T00:17:11.050Z,95469.00
2019-06-10T00:19:40.746Z,95461.02
2019-06-10T00:22:08.530Z,95460.65
2019-06-10T00:24:37.464Z,95454.89
2019-06-10T00:27:05.909Z,95460.29
2019-06-10T00:29:34.251Z,95456.17
2019-06-10T00:32:04.705Z,95460.30
2019-06-10T00:34:31.633Z,95460.19
2019-06-10T00:37:02.644Z,95468.05
2019-06-10T00:39:31.276Z,95458.16
2019-06-10T00:42:02.466Z,95461.39
2019-06-10T00:44:28.167Z,95455.66
2019-06-10T00:46:55.681Z,95458.64
2019-06-10T00:49:23.096Z,95458.16
2019-06-10T00:51:51.122Z,95451.56
2019-06-10T00:54:18.744Z,95450.80
2019-06-10T00:56:46.116Z,95451.70
2019-06-10T00:59:15.358Z,95457.08
2019-06-10T01:01:42.862Z,95460.05
2019-06-10T01:04:14.422Z,95455.64
2019-06-10T01:06:42.144Z,95455.23
2019-06-10T01:09:11.397Z,95452.41
2019-06-10T01:11:38.309Z,95448.05
2019-06-10T01:14:05.768Z,95447.45
2019-06-10T01:16:33.155Z,95442.59
2019-06-10T01:19:01.460Z,95444.58
2019-06-10T01:21:31.156Z,95440.97
2019-06-10T01:23:58.441Z,95438.45
2019-06-10T01:26:25.804Z,95441.66
2019-06-10T01:28:53.226Z,95429.68
2019-06-10T01:31:24.100Z,95430.45
2019-06-10T01:33:51.310Z,95427.70
2019-06-10T01:36:21.096Z,95416.62
2019-06-10T01:38:50.940Z,95417.10
2019-06-10T01:41:17.763Z,95414.47
2019-06-10T01:43:45.262Z,95402.88
2019-06-10T01:46:14.441Z,95413.85
2019-06-10T01:48:47.816Z,95414.98
2019-06-10T01:51:17.520Z,95414.33
2019-06-10T01:53:45.534Z,95410.37
2019-06-10T01:56:15.455Z,95414.86
2019-06-10T01:58:42.284Z,95409.50
2019-06-10T02:01:18.687Z,95408.86
2019-06-10T02:03:46.274Z,95412.48
2019-06-10T02:06:17.708Z,95414.25
2019-06-10T02:08:43.006Z,95411.13
2019-06-10T02:11:14.033Z,95403.48
2019-06-10T02:13:40.954Z,95402.23
2019-06-10T02:16:10.346Z,95408.70
2019-06-10T02:18:37.844Z,95412.59
2019-06-10T02:21:05.289Z,95420.57
2019-06-10T02:23:32.700Z,95410.23
2019-06-10T02:26:01.455Z,95417.20
2019-06-10T02:28:31.673Z,95417.20
2019-06-10T02:31:02.571Z,95412.33
2019-06-10T02:33:34.808Z,95414.20
2019-06-10T02:35:57.946Z,95415.72
2019-06-10T02:38:33.653Z,95418.32
2019-06-10T02:40:54.816Z,95416.33
2019-06-10T02:43:32.117Z,95423.19
2019-06-10T02:45:53.718Z,95420.19
2019-06-10T02:48:24.367Z,95420.45
2019-06-10T02:51:08.414Z,95417.58
2019-06-10T02:53:37.357Z,95413.20
2019-06-10T02:56:06.738Z,95415.71
2019-06-10T02:58:38.759Z,95421.70
2019-06-10T03:01:04.674Z,95421.94
2019-06-10T03:03:42.371Z,95416.71
2019-06-10T03:06:07.129Z,95428.69
2019-06-10T03:08:35.943Z,95415.45
2019-06-10T03:11:03.808Z,95418.09
2019-06-10T03:13:30.165Z,95413.47
2019-06-10T03:16:35.149Z,95417.73
2019-06-10T03:19:03.038Z,95412.77
2019-06-10T03:21:32.297Z,95421.21
2019-06-10T03:23:59.812Z,95423.58
2019-06-10T03:26:27.675Z,95427.70
2019-06-10T03:28:55.176Z,95421.12
2019-06-10T03:31:31.007Z,95427.49
2019-06-10T03:33:54.464Z,95431.73
2019-06-10T03:36:23.085Z,95434.95
2019-06-10T03:38:53.536Z,95432.20
2019-06-10T03:41:22.884Z,95427.44
2019-06-10T03:43:49.771Z,95422.47
2019-06-10T03:46:17.309Z,95424.08
2019-06-10T03:48:44.802Z,95425.57
2019-06-10T03:51:12.756Z,95422.20
2019-06-10T03:53:42.596Z,95424.69
2019-06-10T03:56:12.580Z,95427.20
2019-06-10T03:58:39.384Z,95425.83
2019-06-10T04:01:06.810Z,95416.34
2019-06-10T04:03:34.212Z,95424.20
2019-06-10T04:06:02.379Z,95420.55
2019-06-10T04:08:32.594Z,95421.72
2019-06-10T04:10:59.586Z,95417.92
2019-06-10T04:13:28.387Z,95418.55
2019-06-10T04:15:57.481Z,95415.64
2019-06-10T04:18:26.581Z,95418.92
2019-06-10T04:20:54.306Z,95427.36
2019-06-10T04:23:23.977Z,95425.98
2019-06-10T04:25:52.680Z,95431.12
2019-06-10T04:28:20.251Z,95436.69
2019-06-10T04:30:47.625Z,95428.70
2019-06-10T04:33:15.050Z,95419.56
2019-06-10T04:35:42.856Z,95424.78
2019-06-10T04:38:10.332Z,95425.23
2019-06-10T04:40:38.004Z,95418.88
2019-06-10T04:43:05.445Z,95428.63
2019-06-10T04:45:32.806Z,95421.06
2019-06-10T04:48:00.288Z,95423.33
2019-06-10T04:50:39.122Z,95414.36
2019-06-10T04:52:57.095Z,95414.60
2019-06-10T04:55:26.167Z,95412.37
2019-06-10T04:57:53.898Z,95407.45
2019-06-10T05:00:24.115Z,95405.64
2019-06-10T05:02:52.202Z,95406.90
2019-06-10T05:05:23.615Z,95404.27
2019-06-10T05:07:49.225Z,95401.42
2019-06-10T05:10:16.912Z,95395.89
2019-06-10T05:12:44.370Z,95399.59
2019-06-10T05:15:12.555Z,95393.92
2019-06-10T05:17:40.197Z,95399.47
2019-06-10T05:20:09.594Z,95392.65
2019-06-10T05:22:37.128Z,95401.94
2019-06-10T05:25:04.810Z,95406.69
2019-06-10T05:27:33.069Z,95401.65
2019-06-10T05:30:02.361Z,95403.49
2019-06-10T05:32:31.145Z,95400.97
2019-06-10T05:34:59.302Z,95398.67
2019-06-10T05:37:28.195Z,95391.59
2019-06-10T05:39:56.117Z,95396.83
2019-06-10T05:42:26.059Z,95398.52
2019-06-10T05:44:53.119Z,95390.71
2019-06-10T05:47:23.360Z,95402.38
2019-06-10T05:49:49.968Z,95399.89
2019-06-10T05:52:17.346Z,95401.55
2019-06-10T05:54:44.776Z,95401.83
2019-06-10T05:57:12.240Z,95403.48
2019-06-10T05:59:39.737Z,95399.80
2019-06-10T06:02:07.699Z,95399.70
2019-06-10T06:04:36.052Z,95400.24
2019-06-10T06:07:03.852Z,95393.81
2019-06-10T06:09:33.602Z,95399.34
2019-06-10T06:12:02.480Z,95394.44
2019-06-10T06:14:31.627Z,95400.39
2019-06-10T06:17:02.073Z,95396.47
2019-06-10T06:19:30.187Z,95395.58
2019-06-10T06:21:58.203Z,95388.61
2019-06-10T06:24:25.658Z,95381.49
2019-06-10T06:26:53.467Z,95383.86
2019-06-10T06:29:22.224Z,95387.69
2019-06-10T06:31:52.095Z,95396.87
2019-06-10T06:34:19.279Z,95398.00
2019-06-10T06:36:46.747Z,95389.19
2019-06-10T06:39:14.170Z,95397.92
2019-06-10T06:41:42.727Z,95394.33
2019-06-10T06:44:12.996Z,95389.64
2019-06-10T06:46:42.672Z,95384.55
2019-06-10T06:49:09.556Z,95381.70
2019-06-10T06:51:49.525Z,95382.88
2019-06-10T06:54:06.391Z,95382.34
2019-06-10T06:56:36.137Z,95381.38
2019-06-10T06:59:03.342Z,95380.17
2019-06-10T07:01:34.615Z,95370.55
2019-06-10T07:04:02.439Z,95372.09
2019-06-10T07:06:32.481Z,95365.33
2019-06-10T07:09:07.760Z,95358.19
2019-06-10T07:11:35.646Z,95363.59
2019-06-10T07:14:03.978Z,95357.76
2019-06-10T07:16:34.063Z,95354.48
2019-06-10T07:19:02.621Z,95344.05
2019-06-10T07:21:30.231Z,95347.48
2019-06-10T07:23:57.617Z,95365.12
2019-06-10T07:26:25.074Z,95348.41
2019-06-10T07:28:53.784Z,95350.73
2019-06-10T07:31:27.491Z,95352.23
2019-06-10T07:33:52.644Z,95357.55
2019-06-10T07:36:20.129Z,95352.95
2019-06-10T07:38:49.178Z,95351.09
2019-06-10T07:41:17.017Z,95354.09
2019-06-10T07:43:49.478Z,95344.72
2019-06-10T07:46:13.899Z,95341.98
2019-06-10T07:48:46.227Z,95344.47
2019-06-10T07:51:12.904Z,95341.63
2019-06-10T07:53:42.304Z,95341.16
2019-06-10T07:56:09.318Z,95348.43
2019-06-10T07:58:37.233Z,95333.95
2019-06-10T08:01:06.022Z,95336.50
2019-06-10T08:03:35.266Z,95335.38
2019-06-10T08:06:03.473Z,95331.09
2019-06-10T08:08:32.838Z,95328.17
2019-06-10T08:11:03.087Z,95317.98
2019-06-10T08:13:32.089Z,95317.98
2019-06-10T08:15:59.227Z,95328.66
2019-06-10T08:18:26.745Z,95329.98
2019-06-10T08:20:54.152Z,95326.33
2019-06-10T08:23:23.699Z,95328.66
2019-06-10T08:25:56.663Z,95330.36
2019-06-10T08:28:22.983Z,95321.73
2019-06-10T08:30:49.731Z,95315.44
2019-06-10T08:33:17.103Z,95320.26
2019-06-10T08:35:55.778Z,95323.91
2019-06-10T08:38:14.110Z,95314.13
2019-06-10T08:40:45.001Z,95315.54
2019-06-10T08:43:13.166Z,95314.88
2019-06-10T08:45:43.334Z,95310.16
2019-06-10T08:48:09.855Z,95313.52
2019-06-10T08:50:37.700Z,95292.73
2019-06-10T08:53:13.509Z,95301.99
2019-06-10T08:55:34.797Z,95298.27
2019-06-10T08:58:03.006Z,95297.35
2019-06-10T09:00:33.185Z,95290.05
2019-06-10T09:03:03.819Z,95297.45
2019-06-10T09:05:32.283Z,95292.54
2019-06-10T09:07:59.582Z,95286.47
2019-06-10T09:10:27.022Z,95287.68
2019-06-10T09:12:54.829Z,95286.19
2019-06-10T09:15:23.643Z,95283.73
2019-06-10T09:17:55.242Z,95283.73
2019-06-10T09:20:23.064Z,95285.19
2019-06-10T09:23:13.951Z,95279.80
2019-06-10T09:25:22.463Z,95285.52
2019-06-10T09:27:51.936Z,95288.36
2019-06-10T09:30:19.348Z,95289.36
2019-06-10T09:32:51.182Z,95284.83
2019-06-10T09:35:16.537Z,95285.34
2019-06-10T09:37:48.366Z,95292.20
2019-06-10T09:40:14.604Z,95277.41
2019-06-10T09:42:46.280Z,95278.30
2019-06-10T09:45:13.657Z,95273.19
2019-06-10T09:47:45.593Z,95275.18
2019-06-10T09:50:12.299Z,95274.39
2019-06-10T09:52:41.555Z,95264.72
2019-06-10T09:55:12.861Z,95272.52
2019-06-10T09:57:43.356Z,95272.61
2019-06-10T10:00:12.569Z,95280.31
2019-06-10T10:02:44.903Z,95305.64
2019-06-10T10:05:10.259Z,95307.35
2019-06-10T10:07:38.621Z,95309.64
2019-06-10T10:10:07.316Z,95307.52
2019-06-10T10:12:34.875Z,95306.39
2019-06-10T10:15:22.113Z,95301.12
2019-06-10T10:17:33.381Z,95284.41
2019-06-10T10:20:03.198Z,95287.88
2019-06-10T10:22:30.505Z,95289.14
2019-06-10T10:24:57.978Z,95295.92
2019-06-10T10:27:25.397Z,95297.42
2019-06-10T10:29:57.030Z,95295.35
2019-06-10T10:32:23.234Z,95292.03
2019-06-10T10:34:52.477Z,95280.23
2019-06-10T10:37:22.945Z,95283.11
2019-06-10T10:39:53.789Z,95272.59
2019-06-10T10:42:19.606Z,95273.80
2019-06-10T10:44:50.004Z,95270.45
2019-06-10T10:47:16.508Z,95279.69
2019-06-10T10:49:45.001Z,95274.61
2019-06-10T10:52:12.965Z,95268.46
2019-06-10T10:54:44.386Z,95258.33
2019-06-10T10:57:10.043Z,95260.13
2019-06-10T10:59:37.490Z,95255.19
2019-06-10T11:02:04.990Z,95253.91
2019-06-10T11:04:33.052Z,95243.92
2019-06-10T11:07:01.246Z,95227.31
2019-06-10T11:09:29.765Z,95235.55
2019-06-10T11:11:59.676Z,95233.34
2019-06-10T11:14:28.280Z,95228.06
2019-06-10T11:16:57.461Z,95221.91
2019-06-10T11:19:25.271Z,95224.98
2019-06-10T11:21:53.670Z,95213.87
2019-06-10T11:24:35.519Z,95213.57
2019-06-10T11:26:54.498Z,95206.22
2019-06-10T11:29:20.338Z,95199.23
2019-06-10T11:31:48.486Z,95199.62
2019-06-10T11:34:19.040Z,95196.84
2019-06-10T11:36:46.140Z,95194.90
2019-06-10T11:39:13.824Z,95190.11
2019-06-10T11:41:43.623Z,95183.06
2019-06-10T11:44:10.780Z,95175.82
2019-06-10T11:46:38.193Z,95180.33
2019-06-10T11:49:05.818Z,95183.80
2019-06-10T11:51:33.305Z,95175.73
2019-06-10T11:54:03.237Z,95176.87
2019-06-10T11:56:33.454Z,95169.03
2019-06-10T11:59:03.134Z,95169.32
2019-06-10T12:01:28.875Z,95169.59
2019-06-10T12:03:58.832Z,95167.84
2019-06-10T12:06:25.605Z,95171.64
2019-06-10T12:08:57.324Z,95167.48
2019-06-10T12:11:23.136Z,95164.69
2019-06-10T12:13:53.743Z,95169.40
2019-06-10T12:17:14.779Z,95165.80
2019-06-10T12:18:49.359Z,95164.07
2019-06-10T12:21:16.733Z,95154.64
2019-06-10T12:23:44.165Z,95148.84
2019-06-10T12:26:11.596Z,95135.72
2019-06-10T12:28:38.982Z,95145.94
2019-06-10T12:31:07.449Z,95144.11
2019-06-10T12:33:35.132Z,95155.48
2019-06-10T12:36:06.715Z,95148.21
2019-06-10T12:38:33.419Z,95141.59
2019-06-10T12:41:07.452Z,95128.33
2019-06-10T12:43:32.568Z,95130.20
2019-06-10T12:46:00.928Z,95127.83
2019-06-10T12:48:29.110Z,95124.38
2019-06-10T12:50:58.894Z,95131.72
2019-06-10T12:53:26.034Z,95123.91
2019-06-10T12:55:55.484Z,95119.44
2019-06-10T12:58:22.929Z,95116.36
2019-06-10T13:00:53.036Z,95115.63
2019-06-10T13:03:19.995Z,95115.58
2019-06-10T13:05:47.412Z,95119.38
2019-06-10T13:08:15.790Z,95119.38
2019-06-10T13:10:44.072Z,95113.87
2019-06-10T13:13:11.623Z,95104.67
2019-06-10T13:15:43.135Z,95106.52
2019-06-10T13:18:17.363Z,95107.33
2019-06-10T13:20:39.288Z,95111.88
2019-06-10T13:23:17.229Z,95104.62
2019-06-10T13:25:50.331Z,95111.27
2019-06-10T13:28:06.778Z,95105.28
2019-06-10T13:30:34.808Z,95105.77
2019-06-10T13:33:06.371Z,95107.21
2019-06-10T13:35:32.199Z,95104.80
2019-06-10T13:38:00.971Z,95098.20
2019-06-10T13:40:29.239Z,95086.27
2019-06-10T13:42:57.668Z,95081.45
2019-06-10T13:45:25.746Z,95074.33
2019-06-10T13:47:53.222Z,95064.83
2019-06-10T13:50:22.125Z,95087.30
2019-06-10T13:52:52.162Z,95076.50
2019-06-10T13:55:22.220Z,95080.66
2019-06-10T13:57:49.172Z,95089.05
2019-06-10T14:00:17.178Z,95096.88
2019-06-10T14:02:44.549Z,95100.90
2019-06-10T14:05:18.049Z,95107.40
2019-06-10T14:07:43.457Z,95113.77
2019-06-10T14:10:17.766Z,95111.77
2019-06-10T14:12:43.149Z,95116.43
2019-06-10T14:15:12.196Z,95112.39
2019-06-10T14:17:41.914Z,95110.18
2019-06-10T14:20:10.862Z,95109.00
2019-06-10T14:22:39.343Z,95067.89
2019-06-10T14:25:09.764Z,95111.23
2019-06-10T14:27:36.881Z,95105.09
2019-06-10T14:30:06.250Z,95103.48
2019-06-10T14:32:34.085Z,95112.09
2019-06-10T14:35:01.547Z,95116.88
2019-06-10T14:37:35.738Z,95107.61
2019-06-10T14:39:58.609Z,95106.73
2019-06-10T14:42:25.992Z,95103.37
2019-06-10T14:44:53.621Z,95106.56
2019-06-10T14:47:22.979Z,95104.42
2019-06-10T14:49:52.886Z,95100.81
2019-06-10T14:52:19.899Z,95109.85
2019-06-10T14:54:47.274Z,95109.34
2019-06-10T14:57:15.459Z,95099.77
2019-06-10T14:59:44.123Z,95092.75
2019-06-10T15:02:12.872Z,95089.76
2019-06-10T15:04:42.545Z,95090.70
2019-06-10T15:07:11.447Z,95087.00
2019-06-10T15:09:39.001Z,95082.24
2019-06-10T15:12:07.566Z,95079.67
2019-06-10T15:14:35.146Z,95073.81
2019-06-10T15:17:08.479Z,95068.98
2019-06-10T15:19:36.157Z,95060.31
2019-06-10T15:22:03.709Z,95057.89
2019-06-10T15:24:33.418Z,95054.59
2019-06-10T15:27:10.269Z,95042.64
2019-06-10T15:29:32.659Z,95038.90
2019-06-10T15:32:10.489Z,95034.47
2019-06-10T15:34:28.690Z,95029.30
2019-06-10T15:36:56.234Z,95023.19
2019-06-10T15:39:24.230Z,95018.83
2019-06-10T15:41:52.330Z,95020.02
2019-06-10T15:44:41.433Z,94993.13
2019-06-10T15:46:49.329Z,94982.20
2019-06-10T15:49:19.384Z,94985.29
2019-06-10T15:51:46.062Z,94989.42
2019-06-10T15:54:15.941Z,94994.37
2019-06-10T15:56:51.899Z,94995.32
2019-06-10T15:59:13.845Z,95002.91
2019-06-10T16:01:41.657Z,95004.67
2019-06-10T16:04:09.102Z,95001.59
2019-06-10T16:06:36.612Z,95001.19
2019-06-10T16:09:06.236Z,95004.20
2019-06-10T16:11:33.699Z,95001.85
2019-06-10T16:14:02.932Z,94994.22
2019-06-10T16:16:32.463Z,94988.78
2019-06-10T16:19:02.142Z,94986.65
2019-06-10T16:21:29.268Z,94982.19
2019-06-10T16:23:56.726Z,94999.27
2019-06-10T16:26:26.767Z,94997.80
2019-06-10T16:28:53.483Z,94998.37
2019-06-10T16:31:24.801Z,94993.28
2019-06-10T16:33:52.567Z,94993.18
2019-06-10T16:36:21.116Z,95005.30
2019-06-10T16:38:49.321Z,95007.13
2019-06-10T16:41:17.529Z,95014.59
2019-06-10T16:43:45.122Z,95022.65
2019-06-10T16:46:12.543Z,95033.39
2019-06-10T16:48:39.990Z,95033.38
2019-06-10T16:51:07.459Z,95032.22
2019-06-10T16:53:35.796Z,95033.23
2019-06-10T16:56:03.574Z,95043.18
2019-06-10T16:58:33.200Z,95048.99
2019-06-10T17:01:03.538Z,95049.73
2019-06-10T17:03:33.287Z,95045.04
2019-06-10T17:06:02.401Z,95049.94
2019-06-10T17:08:30.295Z,95039.33
2019-06-10T17:10:57.891Z,95046.94
2019-06-10T17:13:28.916Z,95051.06
2019-06-10T17:15:56.785Z,95041.52
2019-06-10T17:18:26.259Z,95051.25
2019-06-10T17:20:53.787Z,95060.90
2019-06-10T17:23:26.409Z,95058.66
2019-06-10T17:25:53.604Z,95067.60
2019-06-10T17:28:25.605Z,95065.89
2019-06-10T17:30:53.010Z,95058.89
2019-06-10T17:33:22.436Z,95052.94
2019-06-10T17:35:49.676Z,95039.25
2019-06-10T17:38:17.145Z,95036.17
2019-06-10T17:40:45.442Z,95040.91
2019-06-10T17:43:12.981Z,95032.61
2019-06-10T17:45:42.167Z,95029.02
2019-06-10T17:48:09.832Z,95029.73
2019-06-10T17:50:37.208Z,95034.14
2019-06-10T17:53:04.769Z,95036.52
2019-06-10T17:55:34.074Z,95026.97
2019-06-10T17:58:02.941Z,95027.63
2019-06-10T18:00:33.597Z,95031.54
2019-06-10T18:03:03.508Z,95031.58
2019-06-10T18:05:29.638Z,95024.26
2019-06-10T18:07:57.118Z,95022.54
2019-06-10T18:10:25.587Z,95023.68
2019-06-10T18:12:53.198Z,95027.48
2019-06-10T18:15:22.243Z,95028.14
2019-06-10T18:17:52.117Z,95024.27
2019-06-10T18:20:19.658Z,95024.04
2019-06-10T18:22:47.118Z,95030.16
2019-06-10T18:25:16.443Z,95038.12
2019-06-10T18:27:43.825Z,95033.98
2019-06-10T18:30:14.347Z,95039.16
2019-06-10T18:32:42.976Z,95031.44
2019-06-10T18:35:10.996Z,95038.64
2019-06-10T18:37:39.146Z,95041.25
2019-06-10T18:40:08.555Z,95046.76
2019-06-10T18:42:37.555Z,95049.25
2019-06-10T18:45:09.262Z,95057.73
2019-06-10T18:47:37.262Z,95048.08
2019-06-10T18:50:07.726Z,95052.72
2019-06-10T18:52:35.163Z,95064.61
2019-06-10T18:55:03.376Z,95064.77
2019-06-10T18:57:33.166Z,95073.93
2019-06-10T19:00:02.907Z,95079.91
2019-06-10T19:02:30.344Z,95081.61
2019-06-10T19:04:57.848Z,95088.22
2019-06-10T19:07:25.269Z,95088.80
2019-06-10T19:09:52.996Z,95095.92
2019-06-10T19:12:22.430Z,95095.73
2019-06-10T19:14:52.154Z,95099.87
2019-06-10T19:17:19.284Z,95095.09
2019-06-10T19:19:46.743Z,95102.84
2019-06-10T19:22:14.321Z,95083.19
2019-06-10T19:24:44.634Z,95085.06
2019-06-10T19:27:11.102Z,95067.88
2019-06-10T19:29:45.893Z,95090.41
2019-06-10T19:32:08.033Z,95087.45
2019-06-10T19:34:35.429Z,95108.08
2019-06-10T19:37:03.130Z,95107.14
2019-06-10T19:39:35.596Z,95118.61
2019-06-10T19:42:02.619Z,95120.47
2019-06-10T19:44:29.449Z,95134.00
2019-06-10T19:46:56.998Z,95138.95
2019-06-10T19:49:24.399Z,95135.64
2019-06-10T19:51:52.715Z,95128.16
2019-06-10T19:54:20.182Z,95127.45
2019-06-10T19:56:47.682Z,95148.31
2019-06-10T19:59:15.140Z,95138.12
2019-06-10T20:01:46.651Z,95140.98
2019-06-10T20:04:15.606Z,95146.99
2019-06-10T20:06:45.201Z,95142.81
2019-06-10T20:09:13.075Z,95147.64
2019-06-10T20:11:41.034Z,95149.58
2019-06-10T20:14:09.238Z,95135.20
2019-06-10T20:16:37.853Z,95138.87
2019-06-10T20:19:05.567Z,95136.45
2019-06-10T20:21:33.048Z,95144.09
2019-06-10T20:24:02.717Z,95149.38
2019-06-10T20:26:29.927Z,95150.45
2019-06-10T20:28:57.324Z,95146.61
2019-06-10T20:31:24.743Z,95152.59
2019-06-10T20:33:52.407Z,95151.90
2019-06-10T20:36:25.626Z,95160.24
2019-06-10T20:38:51.341Z,95145.02
2019-06-10T20:41:18.799Z,95150.26
2019-06-10T20:43:47.313Z,95133.29
2019-06-10T20:46:15.012Z,95125.27
2019-06-10T20:48:45.196Z,95124.02
2019-06-10T20:51:13.249Z,95123.15
2019-06-10T20:53:43.187Z,95119.59
2019-06-10T20:56:12.448Z,95116.43
2019-06-10T20:58:40.754Z,95108.63
2019-06-10T21:01:08.895Z,95108.98
2019-06-10T21:03:36.322Z,95112.46
2019-06-10T21:06:04.182Z,95111.70
2019-06-10T21:08:33.166Z,95107.47
2019-06-10T21:11:02.978Z,95100.80
2019-06-10T21:13:32.763Z,95102.87
2019-06-10T21:15:59.664Z,95099.28
2019-06-10T21:18:27.147Z,95085.55
2019-06-10T21:20:56.211Z,95079.27
2019-06-10T21:23:23.901Z,95072.08
2019-06-10T21:25:52.495Z,95072.41
2019-06-10T21:28:20.037Z,95070.85
2019-06-10T21:30:53.010Z,95069.52
2019-06-10T21:33:16.811Z,95080.91
2019-06-10T21:35:46.867Z,95072.66
2019-06-10T21:38:13.650Z,95060.38
2019-06-10T21:40:42.484Z,95069.80
2019-06-10T21:43:12.864Z,95068.73
2019-06-10T21:45:42.467Z,95072.48
2019-06-10T21:48:09.191Z,95067.38
2019-06-10T21:50:36.670Z,95062.03
2019-06-10T21:53:04.171Z,95049.50
2019-06-10T21:55:33.131Z,95044.52
2019-06-10T21:58:03.411Z,95044.70
2019-06-10T22:00:52.863Z,95035.62
2019-06-10T22:03:08.565Z,95036.27
2019-06-10T22:05:35.959Z,95041.14
2019-06-10T22:08:03.510Z,95037.25
2019-06-10T22:10:33.406Z,95035.02
2019-06-10T22:13:02.990Z,95040.60
2019-06-10T22:15:29.741Z,95047.94
2019-06-10T22:17:57.177Z,95056.75
2019-06-10T22:20:24.825Z,95055.19
2019-06-10T22:22:53.670Z,95059.09
2019-06-10T22:25:22.401Z,95041.91
2019-06-10T22:27:50.087Z,95024.70
2019-06-10T22:30:17.579Z,95014.52
2019-06-10T22:32:45.237Z,95031.20
2019-06-10T22:35:12.881Z,95035.52
2019-06-10T22:37:40.367Z,95035.40
2019-06-10T22:40:07.788Z,95026.31
2019-06-10T22:42:35.164Z,95026.06
2019-06-10T22:45:03.827Z,95015.59
2019-06-10T22:47:32.405Z,95016.98
2019-06-10T22:50:04.836Z,95002.05
2019-06-10T22:52:29.372Z,94990.00
2019-06-10T22:54:58.515Z,94991.99
2019-06-10T22:57:26.263Z,94989.05
2019-06-10T22:59:56.264Z,94993.28
2019-06-10T23:02:22.996Z,94998.30
2019-06-10T23:04:51.919Z,94986.59
2019-06-10T23:07:19.737Z,94988.86
2019-06-10T23:09:48.595Z,94992.22
2019-06-10T23:12:16.437Z,94983.57
2019-06-10T23:14:43.864Z,94979.36
2019-06-10T23:17:14.030Z,94975.38
2019-06-10T23:19:42.766Z,94978.86
2019-06-10T23:22:09.914Z,94988.31
2019-06-10T23:24:37.274Z,94982.27
2019-06-10T23:27:04.697Z,94978.31
2019-06-10T23:29:32.359Z,94973.53
2019-06-10T23:32:05.868Z,94971.89
2019-06-10T23:34:29.188Z,94971.02
2019-06-10T23:36:58.325Z,94972.27
2019-06-10T23:39:26.097Z,94968.13
2019-06-10T23:41:55.135Z,94962.16
2019-06-10T23:44:23.040Z,94960.94
2019-06-10T23:46:51.113Z,94962.93
2019-06-10T23:49:18.595Z,94960.11
2019-06-10T23:51:46.112Z,94955.37
2019-06-10T23:54:13.515Z,94954.05
2019-06-10T23:56:42.838Z,94966.92
2019-06-10T23:59:12.056Z,94960.86
